Time,TemperatureF,DewpointF,PressureIn,WindDirection,WindDirectionDegrees,WindSpeedMPH,WindSpeedGustMPH,Humidity,HourlyPrecipIn,Conditions,Clouds,dailyrainin,SoftwareType,DateUTC
2013-04-23 00:00:00,35.6,7.3,30.29,NNE,28,0.0,0.0,30,0.00,,,0.00,WeatherCatV1.12B45,2013-04-23 07:00:00,
2013-04-23 00:05:00,35.8,7.4,30.29,NNE,28,0.0,0.0,30,0.00,,,0.00,WeatherCatV1.12B45,2013-04-23 07:05:00,
2013-04-23 00:10:00,35.8,7.4,30.29,NNE,28,0.0,0.0,30,0.00,,,0.00,WeatherCatV1.12B45,2013-04-23 07:10:00,
2013-04-23 00:15:00,35.4,7.8,30.29,NNE,28,0.0,0.0,31,0.00,,,0.00,WeatherCatV1.12B45,2013-04-23 07:15:00,
2013-04-23 00:21:00,35.1,7.5,30.29,NNE,28,0.0,0.0,31,0.00,,,0.00,WeatherCatV1.12B45,2013-04-23 07:21:00,
2013-04-23 00:26:00,34.9,7.4,30.29,NNE,28,0.0,0.0,31,0.00,,,0.00,WeatherCatV1.12B45,2013-04-23 07:26:00,
2013-04-23 00:31:00,34.3,6.9,30.29,NNE,28,0.0,0.0,31,0.00,,,0.00,WeatherCatV1.12B45,2013-04-23 07:31:00,
2013-04-23 00:36:00,34.2,7.4,30.29,NNE,28,0.0,0.0,32,0.00,,,0.00,WeatherCatV1.12B45,2013-04-23 07:36:00,
2013-04-23 00:41:00,33.8,7.8,30.29,NNE,28,0.0,0.0,33,0.00,,,0.00,WeatherCatV1.12B45,2013-04-23 07:41:00,
2013-04-23 00:46:00,33.8,7.8,30.29,NNE,28,0.0,0.0,33,0.00,,,0.00,WeatherCatV1.12B45,2013-04-23 07:46:00,
2013-04-23 00:51:00,33.6,8.9,30.29,NNE,28,0.0,0.0,35,0.00,,,0.00,WeatherCatV1.12B45,2013-04-23 07:51:00,
2013-04-23 00:56:00,33.3,9.2,30.29,NNE,28,0.0,0.0,36,0.00,,,0.00,WeatherCatV1.12B45,2013-04-23 07:56:00,
2013-04-23 01:01:00,33.1,10.3,30.29,NNE,28,0.0,0.0,38,0.00,,,0.00,WeatherCatV1.12B45,2013-04-23 08:01:00,
2013-04-23 01:06:00,32.9,11.3,30.29,NNE,28,0.0,0.0,40,0.00,,,0.00,WeatherCatV1.12B45,2013-04-23 08:06:00,
2013-04-23 01:11:00,32.7,11.1,30.29,NNE,28,0.0,0.0,40,0.00,,,0.00,WeatherCatV1.12B45,2013-04-23 08:11:00,
2013-04-23 01:16:00,32.5,10.9,30.29,NNE,28,0.0,0.0,40,0.00,,,0.00,WeatherCatV1.12B45,2013-04-23 08:16:00,
2013-04-23 01:21:00,32.5,10.9,30.26,NNE,28,0.0,0.0,40,0.00,,,0.00,WeatherCatV1.12B45,2013-04-23 08:21:00,
2013-04-23 01:26:00,32.5,10.9,30.26,SSE,157,0.0,0.0,40,0.00,,,0.00,WeatherCatV1.12B45,2013-04-23 08:26:00,
2013-04-23 01:31:00,32.4,10.8,30.26,SSE,157,0.0,0.0,40,0.00,,,0.00,WeatherCatV1.12B45,2013-04-23 08:31:00,
2013-04-23 01:36:00,32.2,10.6,30.29,SW,233,0.0,3.1,40,0.00,,,0.00,WeatherCatV1.12B45,2013-04-23 08:36:00,
2013-04-23 01:41:00,31.8,10.8,30.29,SW,233,0.0,0.0,41,0.00,,,0.00,WeatherCatV1.12B45,2013-04-23 08:41:00,
2013-04-23 01:46:00,31.6,10.7,30.29,SW,233,0.0,0.0,41,0.00,,,0.00,WeatherCatV1.12B45,2013-04-23 08:46:00,
2013-04-23 01:51:00,31.6,10.7,30.29,SSW,211,2.7,2.7,41,0.00,,,0.00,WeatherCatV1.12B45,2013-04-23 08:51:00,
2013-04-23 01:56:00,31.8,10.8,30.29,South,190,0.0,3.6,41,0.00,,,0.00,WeatherCatV1.12B45,2013-04-23 08:56:00,
2013-04-23 02:01:00,31.8,10.8,30.29,SW,216,3.1,3.6,41,0.00,,,0.00,WeatherCatV1.12B45,2013-04-23 09:01:00,
2013-04-23 02:06:00,32.0,11.0,30.26,SSW,193,3.6,3.6,41,0.00,,,0.00,WeatherCatV1.12B45,2013-04-23 09:06:00,
2013-04-23 02:11:00,32.2,11.2,30.26,SW,218,2.7,4.0,41,0.00,,,0.00,WeatherCatV1.12B45,2013-04-23 09:11:00,
2013-04-23 02:16:00,32.2,10.6,30.26,South,181,3.1,4.0,40,0.00,,,0.00,WeatherCatV1.12B45,2013-04-23 09:16:00,
2013-04-23 02:21:00,32.2,10.6,30.26,South,190,4.5,5.4,40,0.00,,,0.00,WeatherCatV1.12B45,2013-04-23 09:21:00,
2013-04-23 02:26:00,32.4,10.8,30.26,SSW,206,4.0,6.3,40,0.00,,,0.00,WeatherCatV1.12B45,2013-04-23 09:26:00,
2013-04-23 02:31:00,32.5,10.9,30.26,SSW,200,3.1,5.4,40,0.00,,,0.00,WeatherCatV1.12B45,2013-04-23 09:31:00,
2013-04-23 02:36:00,32.4,10.8,30.26,SSW,210,4.0,4.9,40,0.00,,,0.00,WeatherCatV1.12B45,2013-04-23 09:36:00,
2013-04-23 02:41:00,32.0,10.4,30.26,SSW,202,4.0,5.8,40,0.00,,,0.00,WeatherCatV1.12B45,2013-04-23 09:41:00,
2013-04-23 02:46:00,32.2,10.6,30.26,South,182,4.9,6.3,40,0.00,,,0.00,WeatherCatV1.12B45,2013-04-23 09:46:00,
2013-04-23 02:51:00,32.4,10.8,30.26,SSW,195,3.1,4.0,40,0.00,,,0.00,WeatherCatV1.12B45,2013-04-23 09:51:00,
2013-04-23 02:56:00,31.8,10.3,30.26,SSW,200,3.6,3.6,40,0.00,,,0.00,WeatherCatV1.12B45,2013-04-23 09:56:00,
2013-04-23 03:01:00,31.3,9.8,30.26,South,180,5.4,5.8,40,0.00,,,0.00,WeatherCatV1.12B45,2013-04-23 10:01:00,
2013-04-23 03:06:00,31.3,9.8,30.26,SSW,200,4.9,6.3,40,0.00,,,0.00,WeatherCatV1.12B45,2013-04-23 10:06:00,
2013-04-23 03:11:00,31.8,10.3,30.26,SSW,197,5.8,8.1,40,0.00,,,0.00,WeatherCatV1.12B45,2013-04-23 10:11:00,
2013-04-23 03:16:00,32.7,10.5,30.26,SW,223,7.6,8.1,39,0.00,,,0.00,WeatherCatV1.12B45,2013-04-23 10:16:00,
2013-04-23 03:21:00,33.3,10.4,30.26,SSW,211,4.9,8.1,38,0.00,,,0.00,WeatherCatV1.12B45,2013-04-23 10:21:00,
2013-04-23 03:26:00,33.4,10.0,30.26,SSW,198,6.3,6.7,37,0.00,,,0.00,WeatherCatV1.12B45,2013-04-23 10:26:00,
2013-04-23 03:31:00,33.4,10.0,30.26,SSW,199,7.6,8.1,37,0.00,,,0.00,WeatherCatV1.12B45,2013-04-23 10:31:00,
2013-04-23 03:36:00,33.4,10.0,30.26,South,190,8.3,8.3,37,0.00,,,0.00,WeatherCatV1.12B45,2013-04-23 10:36:00,
2013-04-23 03:41:00,33.6,10.2,30.26,SSW,195,8.1,8.1,37,0.00,,,0.00,WeatherCatV1.12B45,2013-04-23 10:41:00,
2013-04-23 03:46:00,33.6,9.5,30.26,South,191,4.0,7.6,36,0.00,,,0.00,WeatherCatV1.12B45,2013-04-23 10:46:00,
2013-04-23 03:51:00,33.3,9.2,30.26,SSW,193,2.2,4.0,36,0.00,,,0.00,WeatherCatV1.12B45,2013-04-23 10:51:00,
2013-04-23 03:56:00,32.9,9.5,30.26,South,178,0.0,2.7,37,0.00,,,0.00,WeatherCatV1.12B45,2013-04-23 10:56:00,
2013-04-23 04:01:00,32.4,9.0,30.26,SW,236,3.1,3.1,37,0.00,,,0.00,WeatherCatV1.12B45,2013-04-23 11:01:00,
2013-04-23 04:06:00,32.4,9.6,30.26,SSW,194,4.9,6.3,38,0.00,,,0.00,WeatherCatV1.12B45,2013-04-23 11:06:00,
2013-04-23 04:11:00,32.7,9.9,30.26,SSW,195,5.4,7.6,38,0.00,,,0.00,WeatherCatV1.12B45,2013-04-23 11:11:00,
2013-04-23 04:16:00,32.9,10.1,30.26,SSW,205,5.4,6.3,38,0.00,,,0.00,WeatherCatV1.12B45,2013-04-23 11:16:00,
2013-04-23 04:21:00,33.1,9.7,30.26,South,185,4.9,8.1,37,0.00,,,0.00,WeatherCatV1.12B45,2013-04-23 11:21:00,
2013-04-23 04:26:00,32.9,10.1,30.26,SSW,206,4.5,6.3,38,0.00,,,0.00,WeatherCatV1.12B45,2013-04-23 11:26:00,
2013-04-23 04:31:00,32.9,9.5,30.26,SSW,204,5.4,8.1,37,0.00,,,0.00,WeatherCatV1.12B45,2013-04-23 11:31:00,
2013-04-23 04:36:00,33.1,9.7,30.26,SW,218,4.9,5.8,37,0.00,,,0.00,WeatherCatV1.12B45,2013-04-23 11:36:00,
2013-04-23 04:41:00,33.1,9.7,30.26,SW,214,5.8,7.6,37,0.00,,,0.00,WeatherCatV1.12B45,2013-04-23 11:41:00,
2013-04-23 04:46:00,33.3,9.2,30.23,SW,217,5.4,7.2,36,0.00,,,0.00,WeatherCatV1.12B45,2013-04-23 11:46:00,
2013-04-23 04:51:00,33.3,9.2,30.23,WSW,250,5.4,6.3,36,0.00,,,0.00,WeatherCatV1.12B45,2013-04-23 11:51:00,
2013-04-23 04:56:00,33.1,9.1,30.23,WSW,245,4.9,5.4,36,0.00,,,0.00,WeatherCatV1.12B45,2013-04-23 11:56:00,
2013-04-23 05:01:00,32.7,8.7,30.23,WSW,237,0.0,0.0,36,0.00,,,0.00,WeatherCatV1.12B45,2013-04-23 12:01:00,
2013-04-23 05:06:00,32.0,9.3,30.23,WSW,240,3.6,3.6,38,0.00,,,0.00,WeatherCatV1.12B45,2013-04-23 12:06:00,
2013-04-23 05:11:00,31.3,8.7,30.23,South,178,2.2,3.6,38,0.00,,,0.00,WeatherCatV1.12B45,2013-04-23 12:11:00,
2013-04-23 05:16:00,30.4,8.4,30.23,South,178,0.0,0.0,39,0.00,,,0.00,WeatherCatV1.12B45,2013-04-23 12:16:00,
2013-04-23 05:21:00,29.7,8.9,30.23,South,178,0.0,0.0,41,0.00,,,0.00,WeatherCatV1.12B45,2013-04-23 12:21:00,
2013-04-23 05:26:00,28.9,8.8,30.23,South,178,0.0,0.0,42,0.00,,,0.00,WeatherCatV1.12B45,2013-04-23 12:26:00,
2013-04-23 05:31:00,28.8,8.6,30.23,South,177,0.0,0.0,42,0.00,,,0.00,WeatherCatV1.12B45,2013-04-23 12:31:00,
2013-04-23 05:36:00,28.6,9.0,30.23,South,178,0.0,0.0,43,0.00,,,0.00,WeatherCatV1.12B45,2013-04-23 12:36:00,
2013-04-23 05:41:00,28.6,9.0,30.23,South,178,0.0,0.0,43,0.00,,,0.00,WeatherCatV1.12B45,2013-04-23 12:41:00,
2013-04-23 05:46:00,28.6,9.5,30.23,South,178,0.0,0.0,44,0.00,,,0.00,WeatherCatV1.12B45,2013-04-23 12:46:00,
2013-04-23 05:51:00,28.6,9.5,30.23,South,178,0.0,0.0,44,0.00,,,0.00,WeatherCatV1.12B45,2013-04-23 12:51:00,
2013-04-23 05:56:00,28.8,9.6,30.23,South,177,0.0,0.0,44,0.00,,,0.00,WeatherCatV1.12B45,2013-04-23 12:56:00,
2013-04-23 05:58:00,28.8,9.6,30.23,South,178,0.0,0.0,44,0.00,,,0.00,WeatherCatV1.12B45,2013-04-23 12:58:00,
2013-04-23 06:03:00,28.9,9.8,30.23,South,178,0.0,0.0,44,0.00,,,0.00,WeatherCatV1.12B45,2013-04-23 13:03:00,
2013-04-23 06:08:00,29.1,10.0,30.23,South,178,0.0,2.2,44,0.00,,,0.00,WeatherCatV1.12B45,2013-04-23 13:08:00,
2013-04-23 06:13:00,29.3,10.1,30.23,South,178,0.0,0.0,44,0.00,,,0.00,WeatherCatV1.12B45,2013-04-23 13:13:00,
2013-04-23 06:18:00,29.7,10.5,30.23,South,178,0.0,0.0,44,0.00,,,0.00,WeatherCatV1.12B45,2013-04-23 13:18:00,
2013-04-23 06:23:00,30.0,10.8,30.23,South,178,0.0,0.0,44,0.00,,,0.00,WeatherCatV1.12B45,2013-04-23 13:23:00,
2013-04-23 06:24:00,30.2,10.9,30.23,South,178,0.0,0.0,44,0.00,,,0.00,WeatherCatV1.12B45,2013-04-23 13:24:00,
2013-04-23 06:29:00,30.7,10.9,30.23,South,178,0.0,2.7,43,0.00,,,0.00,WeatherCatV1.12B45,2013-04-23 13:29:00,
2013-04-23 06:34:00,32.0,12.6,30.23,East,90,0.0,3.6,44,0.00,,,0.00,WeatherCatV1.12B45,2013-04-23 13:34:00,
2013-04-23 06:39:00,32.2,12.7,30.23,ESE,103,0.0,0.0,44,0.00,,,0.00,WeatherCatV1.12B45,2013-04-23 13:39:00,
2013-04-23 06:44:00,32.0,12.1,30.23,ESE,103,0.0,0.0,43,0.00,,,0.00,WeatherCatV1.12B45,2013-04-23 13:44:00,
2013-04-23 06:49:00,31.8,12.4,30.23,ESE,103,0.0,0.0,44,0.00,,,0.00,WeatherCatV1.12B45,2013-04-23 13:49:00,
2013-04-23 06:54:00,32.2,12.7,30.23,ESE,103,0.0,0.0,44,0.00,,,0.00,WeatherCatV1.12B45,2013-04-23 13:54:00,
2013-04-23 06:59:00,32.7,13.2,30.23,ESE,103,0.0,0.0,44,0.00,,,0.00,WeatherCatV1.12B45,2013-04-23 13:59:00,
2013-04-23 07:04:00,33.6,14.1,30.23,East,99,0.0,0.0,44,0.00,,,0.00,WeatherCatV1.12B45,2013-04-23 14:04:00,
2013-04-23 07:09:00,33.6,14.1,30.23,East,99,2.7,4.0,44,0.00,,,0.00,WeatherCatV1.12B45,2013-04-23 14:09:00,
2013-04-23 07:14:00,33.6,14.1,30.23,East,99,0.0,0.0,44,0.00,,,0.00,WeatherCatV1.12B45,2013-04-23 14:14:00,
2013-04-23 07:19:00,34.0,14.4,30.23,East,99,0.0,0.0,44,0.00,,,0.00,WeatherCatV1.12B45,2013-04-23 14:19:00,
2013-04-23 07:24:00,34.3,14.7,30.23,East,99,0.0,0.0,44,0.00,,,0.00,WeatherCatV1.12B45,2013-04-23 14:24:00,
2013-04-23 07:29:00,34.3,13.7,30.23,East,99,0.0,0.0,42,0.00,,,0.00,WeatherCatV1.12B45,2013-04-23 14:29:00,
2013-04-23 07:34:00,34.2,13.5,30.23,East,99,0.0,0.0,42,0.00,,,0.00,WeatherCatV1.12B45,2013-04-23 14:34:00,
2013-04-23 07:39:00,34.3,14.2,30.23,East,99,0.0,0.0,43,0.00,,,0.00,WeatherCatV1.12B45,2013-04-23 14:39:00,
2013-04-23 07:44:00,34.7,14.5,30.23,East,99,0.0,0.0,43,0.00,,,0.00,WeatherCatV1.12B45,2013-04-23 14:44:00,
2013-04-23 07:49:00,34.9,14.7,30.23,East,99,0.0,0.0,43,0.00,,,0.00,WeatherCatV1.12B45,2013-04-23 14:49:00,
2013-04-23 07:54:00,35.4,14.6,30.23,East,99,0.0,0.0,42,0.00,,,0.00,WeatherCatV1.12B45,2013-04-23 14:54:00,
2013-04-23 07:59:00,35.8,15.0,30.23,East,99,0.0,0.0,42,0.00,,,0.00,WeatherCatV1.12B45,2013-04-23 14:59:00,
2013-04-23 08:04:00,36.1,14.7,30.23,East,98,2.7,2.7,41,0.00,,,0.00,WeatherCatV1.12B45,2013-04-23 15:04:00,
2013-04-23 08:09:00,36.3,14.9,30.23,NNE,23,3.6,4.0,41,0.00,,,0.00,WeatherCatV1.12B45,2013-04-23 15:09:00,
2013-04-23 08:14:00,36.5,15.1,30.23,NNE,23,0.0,0.0,41,0.00,,,0.00,WeatherCatV1.12B45,2013-04-23 15:14:00,
2013-04-23 08:19:00,36.7,15.2,30.23,NNE,24,2.7,2.7,41,0.00,,,0.00,WeatherCatV1.12B45,2013-04-23 15:19:00,
2013-04-23 08:24:00,37.2,15.7,30.23,NNE,23,0.0,0.0,41,0.00,,,0.00,WeatherCatV1.12B45,2013-04-23 15:24:00,
2013-04-23 08:29:00,37.8,15.6,30.23,NNE,23,0.0,0.0,40,0.00,,,0.00,WeatherCatV1.12B45,2013-04-23 15:29:00,
2013-04-23 08:34:00,38.1,16.0,30.23,NNE,23,0.0,0.0,40,0.00,,,0.00,WeatherCatV1.12B45,2013-04-23 15:34:00,
2013-04-23 08:39:00,38.7,16.4,30.23,NNE,23,0.0,0.0,40,0.00,,,0.00,WeatherCatV1.12B45,2013-04-23 15:39:00,
2013-04-23 08:44:00,39.2,16.3,30.23,North,5,4.0,4.0,39,0.00,,,0.00,WeatherCatV1.12B45,2013-04-23 15:44:00,
2013-04-23 08:49:00,39.4,16.5,30.23,NNE,15,3.1,3.6,39,0.00,,,0.00,WeatherCatV1.12B45,2013-04-23 15:49:00,
2013-04-23 08:54:00,39.9,17.0,30.23,NNE,33,3.6,4.0,39,0.00,,,0.00,WeatherCatV1.12B45,2013-04-23 15:54:00,
2013-04-23 08:59:00,40.5,17.5,30.23,NNE,33,0.0,0.0,39,0.00,,,0.00,WeatherCatV1.12B45,2013-04-23 15:59:00,
2013-04-23 09:04:00,40.8,17.8,30.23,NNE,33,3.6,3.6,39,0.00,,,0.00,WeatherCatV1.12B45,2013-04-23 16:04:00,
2013-04-23 09:09:00,41.2,17.5,30.23,NNE,33,2.7,3.6,38,0.00,,,0.00,WeatherCatV1.12B45,2013-04-23 16:09:00,
2013-04-23 09:14:00,41.5,17.2,30.23,NNE,33,3.1,3.1,37,0.00,,,0.00,WeatherCatV1.12B45,2013-04-23 16:14:00,
2013-04-23 09:20:00,42.1,17.7,30.23,NNE,33,0.0,0.0,37,0.00,,,0.00,WeatherCatV1.12B45,2013-04-23 16:20:00,
2013-04-23 09:25:00,42.8,17.1,30.23,SE,133,6.3,6.3,35,0.00,,,0.00,WeatherCatV1.12B45,2013-04-23 16:25:00,
2013-04-23 09:30:00,43.9,18.0,30.23,ESE,105,3.6,3.6,35,0.00,,,0.00,WeatherCatV1.12B45,2013-04-23 16:30:00,
2013-04-23 09:35:00,45.0,15.4,30.23,SSW,197,3.1,5.4,30,0.00,,,0.00,WeatherCatV1.12B45,2013-04-23 16:35:00,
2013-04-23 09:40:00,45.3,15.0,30.23,SE,127,3.6,3.6,29,0.00,,,0.00,WeatherCatV1.12B45,2013-04-23 16:40:00,
2013-04-23 09:45:00,45.7,14.5,30.23,SE,125,3.1,6.7,28,0.00,,,0.00,WeatherCatV1.12B45,2013-04-23 16:45:00,
2013-04-23 09:50:00,45.9,14.6,30.23,West,263,4.0,6.3,28,0.00,,,0.00,WeatherCatV1.12B45,2013-04-23 16:50:00,
2013-04-23 09:55:00,46.0,14.8,30.23,SSE,163,0.0,2.2,28,0.00,,,0.00,WeatherCatV1.12B45,2013-04-23 16:55:00,
2013-04-23 10:00:00,46.4,15.1,30.23,West,263,3.6,4.5,28,0.00,,,0.00,WeatherCatV1.12B45,2013-04-23 17:00:00,
2013-04-23 10:05:00,46.9,15.6,30.23,SE,126,0.0,4.9,28,0.00,,,0.00,WeatherCatV1.12B45,2013-04-23 17:05:00,
2013-04-23 10:10:00,47.5,16.0,30.23,SE,127,2.7,3.6,28,0.00,,,0.00,WeatherCatV1.12B45,2013-04-23 17:10:00,
2013-04-23 10:15:00,48.0,16.5,30.23,SSW,209,3.6,5.8,28,0.00,,,0.00,WeatherCatV1.12B45,2013-04-23 17:15:00,
2013-04-23 10:20:00,48.2,15.8,30.23,NNE,26,0.0,6.3,27,0.00,,,0.00,WeatherCatV1.12B45,2013-04-23 17:20:00,
2013-04-23 10:25:00,48.4,16.0,30.23,SSE,160,0.0,4.0,27,0.00,,,0.00,WeatherCatV1.12B45,2013-04-23 17:25:00,
2013-04-23 10:30:00,48.4,16.0,30.23,WSW,237,2.2,4.9,27,0.00,,,0.00,WeatherCatV1.12B45,2013-04-23 17:30:00,
2013-04-23 10:35:00,48.9,16.4,30.23,ESE,110,6.3,6.3,27,0.00,,,0.00,WeatherCatV1.12B45,2013-04-23 17:35:00,
2013-04-23 10:40:00,50.2,17.5,30.23,West,272,4.0,4.5,27,0.00,,,0.00,WeatherCatV1.12B45,2013-04-23 17:40:00,
2013-04-23 10:45:00,50.5,17.8,30.23,WNW,288,2.7,5.4,27,0.00,,,0.00,WeatherCatV1.12B45,2013-04-23 17:45:00,
2013-04-23 10:50:00,51.1,17.4,30.23,South,181,4.0,4.0,26,0.00,,,0.00,WeatherCatV1.12B45,2013-04-23 17:50:00,
2013-04-23 10:55:00,51.1,17.4,30.23,ESE,112,0.0,2.7,26,0.00,,,0.00,WeatherCatV1.12B45,2013-04-23 17:55:00,
2013-04-23 11:00:00,51.4,17.7,30.23,NE,53,3.6,5.8,26,0.00,,,0.00,WeatherCatV1.12B45,2013-04-23 18:00:00,
2013-04-23 11:05:00,51.6,17.9,30.23,East,99,2.7,4.0,26,0.00,,,0.00,WeatherCatV1.12B45,2013-04-23 18:05:00,
2013-04-23 11:10:00,50.9,17.3,30.23,ESE,118,8.1,8.3,26,0.00,,,0.00,WeatherCatV1.12B45,2013-04-23 18:10:00,
2013-04-23 11:15:00,51.4,17.7,30.23,ESE,107,0.0,3.6,26,0.00,,,0.00,WeatherCatV1.12B45,2013-04-23 18:15:00,
2013-04-23 11:20:00,51.6,16.0,30.23,NNE,31,3.6,3.6,24,0.00,,,0.00,WeatherCatV1.12B45,2013-04-23 18:20:00,
2013-04-23 11:25:00,51.8,18.0,30.23,West,270,4.9,5.8,26,0.00,,,0.00,WeatherCatV1.12B45,2013-04-23 18:25:00,
2013-04-23 11:30:00,51.6,16.0,30.23,North,349,0.0,3.6,24,0.00,,,0.00,WeatherCatV1.12B45,2013-04-23 18:30:00,
2013-04-23 11:35:00,52.3,15.7,30.23,ESE,114,4.9,5.4,23,0.00,,,0.00,WeatherCatV1.12B45,2013-04-23 18:35:00,
2013-04-23 11:40:00,52.7,13.9,30.23,NNW,341,2.7,4.9,21,0.00,,,0.00,WeatherCatV1.12B45,2013-04-23 18:40:00,
2013-04-23 11:45:00,52.7,16.0,30.23,North,9,0.0,3.1,23,0.00,,,0.00,WeatherCatV1.12B45,2013-04-23 18:45:00,
2013-04-23 11:50:00,52.5,15.8,30.23,NNE,32,3.1,5.4,23,0.00,,,0.00,WeatherCatV1.12B45,2013-04-23 18:50:00,
2013-04-23 11:55:00,51.8,13.1,30.23,East,93,3.6,4.9,21,0.00,,,0.00,WeatherCatV1.12B45,2013-04-23 18:55:00,
2013-04-23 12:00:00,51.8,15.2,30.23,SSE,160,2.7,3.6,23,0.00,,,0.00,WeatherCatV1.12B45,2013-04-23 19:00:00,
2013-04-23 12:05:00,53.1,14.2,30.23,SW,232,4.9,6.3,21,0.00,,,0.00,WeatherCatV1.12B45,2013-04-23 19:05:00,
2013-04-23 12:10:00,53.6,16.7,30.23,WSW,245,0.0,5.4,23,0.00,,,0.00,WeatherCatV1.12B45,2013-04-23 19:10:00,
2013-04-23 12:15:00,54.5,14.3,30.23,SSW,202,0.0,3.1,20,0.00,,,0.00,WeatherCatV1.12B45,2013-04-23 19:15:00,
2013-04-23 12:20:00,54.9,14.6,30.23,ENE,65,0.0,2.2,20,0.00,,,0.00,WeatherCatV1.12B45,2013-04-23 19:20:00,
2013-04-23 12:25:00,54.9,14.6,30.23,North,9,3.1,3.6,20,0.00,,,0.00,WeatherCatV1.12B45,2013-04-23 19:25:00,
2013-04-23 12:30:00,54.5,14.3,30.23,South,177,0.0,3.1,20,0.00,,,0.00,WeatherCatV1.12B45,2013-04-23 19:30:00,
2013-04-23 12:35:00,53.8,13.7,30.23,ENE,61,3.6,4.9,20,0.00,,,0.00,WeatherCatV1.12B45,2013-04-23 19:35:00,
2013-04-23 12:40:00,53.2,10.9,30.23,NE,49,3.6,4.0,18,0.00,,,0.00,WeatherCatV1.12B45,2013-04-23 19:40:00,
2013-04-23 12:45:00,53.4,14.5,30.23,NE,52,4.0,4.9,21,0.00,,,0.00,WeatherCatV1.12B45,2013-04-23 19:45:00,
2013-04-23 12:50:00,53.6,13.5,30.20,NNE,20,3.6,4.0,20,0.00,,,0.00,WeatherCatV1.12B45,2013-04-23 19:50:00,
2013-04-23 12:55:00,53.2,10.9,30.20,NNE,32,4.9,5.4,18,0.00,,,0.00,WeatherCatV1.12B45,2013-04-23 19:55:00,
2013-04-23 13:00:00,53.1,14.2,30.20,ENE,60,4.0,4.0,21,0.00,,,0.00,WeatherCatV1.12B45,2013-04-23 20:00:00,
2013-04-23 13:05:00,53.2,14.3,30.20,NE,54,3.1,3.1,21,0.00,,,0.00,WeatherCatV1.12B45,2013-04-23 20:05:00,
2013-04-23 13:10:00,53.1,10.7,30.20,ENE,57,2.7,6.3,18,0.00,,,0.00,WeatherCatV1.12B45,2013-04-23 20:10:00,
2013-04-23 13:15:00,53.4,14.5,30.20,NNE,26,3.1,4.0,21,0.00,,,0.00,WeatherCatV1.12B45,2013-04-23 20:15:00,
2013-04-23 13:20:00,54.1,14.0,30.20,NNE,31,2.7,4.0,20,0.00,,,0.00,WeatherCatV1.12B45,2013-04-23 20:20:00,
2013-04-23 13:25:00,54.5,14.3,30.20,NE,43,3.6,4.0,20,0.00,,,0.00,WeatherCatV1.12B45,2013-04-23 20:25:00,
2013-04-23 13:30:00,54.9,14.6,30.20,NNW,332,2.7,3.1,20,0.00,,,0.00,WeatherCatV1.12B45,2013-04-23 20:30:00,
2013-04-23 13:35:00,55.4,11.3,30.20,NW,308,3.6,4.9,17,0.00,,,0.00,WeatherCatV1.12B45,2013-04-23 20:35:00,
2013-04-23 13:40:00,55.2,12.5,30.20,NE,34,6.3,6.3,18,0.00,,,0.00,WeatherCatV1.12B45,2013-04-23 20:40:00,
2013-04-23 13:45:00,55.0,12.3,30.20,NNE,15,2.7,4.0,18,0.00,,,0.00,WeatherCatV1.12B45,2013-04-23 20:45:00,
2013-04-23 13:50:00,55.2,12.5,30.20,SW,218,2.7,5.4,18,0.00,,,0.00,WeatherCatV1.12B45,2013-04-23 20:50:00,
2013-04-23 13:55:00,55.9,11.8,30.20,SSE,157,0.0,6.3,17,0.00,,,0.00,WeatherCatV1.12B45,2013-04-23 20:55:00,
2013-04-23 14:00:00,55.9,9.0,30.20,ENE,64,2.7,6.3,15,0.00,,,0.00,WeatherCatV1.12B45,2013-04-23 21:00:00,
2013-04-23 14:05:00,55.8,8.8,30.20,NE,45,2.7,4.0,15,0.00,,,0.00,WeatherCatV1.12B45,2013-04-23 21:05:00,
2013-04-23 14:10:00,55.9,9.0,30.20,East,87,0.0,4.0,15,0.00,,,0.00,WeatherCatV1.12B45,2013-04-23 21:10:00,
2013-04-23 14:15:00,56.3,12.1,30.20,NW,313,2.7,6.3,17,0.00,,,0.00,WeatherCatV1.12B45,2013-04-23 21:15:00,
2013-04-23 14:20:00,57.0,9.8,30.20,NW,315,3.6,5.4,15,0.00,,,0.00,WeatherCatV1.12B45,2013-04-23 21:20:00,
2013-04-23 14:25:00,57.0,12.7,30.20,NW,324,6.3,6.3,17,0.00,,,0.00,WeatherCatV1.12B45,2013-04-23 21:25:00,
2013-04-23 14:30:00,56.8,9.7,30.20,NE,45,0.0,3.6,15,0.00,,,0.00,WeatherCatV1.12B45,2013-04-23 21:30:00,
2013-04-23 14:35:00,56.5,9.4,30.17,NE,56,0.0,4.0,15,0.00,,,0.00,WeatherCatV1.12B45,2013-04-23 21:35:00,
2013-04-23 14:40:00,56.8,9.7,30.17,NNE,31,4.0,4.0,15,0.00,,,0.00,WeatherCatV1.12B45,2013-04-23 21:40:00,
2013-04-23 14:45:00,56.8,9.7,30.17,ENE,62,4.0,4.9,15,0.00,,,0.00,WeatherCatV1.12B45,2013-04-23 21:45:00,
2013-04-23 14:50:00,56.5,9.4,30.17,ENE,70,3.6,3.6,15,0.00,,,0.00,WeatherCatV1.12B45,2013-04-23 21:50:00,
2013-04-23 14:55:00,56.3,9.3,30.17,NE,40,5.4,5.4,15,0.00,,,0.00,WeatherCatV1.12B45,2013-04-23 21:55:00,
2013-04-23 15:00:00,56.7,9.6,30.17,NE,37,0.0,2.7,15,0.00,,,0.00,WeatherCatV1.12B45,2013-04-23 22:00:00,
2013-04-23 15:05:00,56.1,4.2,30.17,WNW,303,0.0,4.9,12,0.00,,,0.00,WeatherCatV1.12B45,2013-04-23 22:05:00,
2013-04-23 15:10:00,56.8,9.7,30.17,ENE,71,2.7,4.9,15,0.00,,,0.00,WeatherCatV1.12B45,2013-04-23 22:10:00,
2013-04-23 15:15:00,57.7,8.9,30.17,NW,318,3.6,5.8,14,0.00,,,0.00,WeatherCatV1.12B45,2013-04-23 22:15:00,
2013-04-23 15:20:00,58.5,9.5,30.17,NW,314,5.8,5.8,14,0.00,,,0.00,WeatherCatV1.12B45,2013-04-23 22:20:00,
2013-04-23 15:25:00,59.4,10.2,30.17,NNW,327,7.6,8.1,14,0.00,,,0.00,WeatherCatV1.12B45,2013-04-23 22:25:00,
2013-04-23 15:30:00,59.7,10.5,30.17,North,353,4.0,8.1,14,0.00,,,0.00,WeatherCatV1.12B45,2013-04-23 22:30:00,
2013-04-23 15:35:00,59.2,10.0,30.17,WNW,283,2.7,4.9,14,0.00,,,0.00,WeatherCatV1.12B45,2013-04-23 22:35:00,
2013-04-23 15:40:00,59.5,10.3,30.17,SW,233,4.0,5.8,14,0.00,,,0.00,WeatherCatV1.12B45,2013-04-23 22:40:00,
2013-04-23 15:45:00,59.4,10.2,30.17,NNW,335,5.4,5.4,14,0.00,,,0.00,WeatherCatV1.12B45,2013-04-23 22:45:00,
2013-04-23 15:50:00,58.6,9.6,30.17,NNE,28,2.2,2.7,14,0.00,,,0.00,WeatherCatV1.12B45,2013-04-23 22:50:00,
2013-04-23 15:55:00,57.2,8.5,30.17,ENE,58,5.4,7.6,14,0.00,,,0.00,WeatherCatV1.12B45,2013-04-23 22:55:00,
2013-04-23 16:00:00,56.5,9.4,30.17,NNE,23,5.4,6.3,15,0.00,,,0.00,WeatherCatV1.12B45,2013-04-23 23:00:00,
2013-04-23 16:05:00,56.3,9.3,30.17,ENE,64,3.1,6.3,15,0.00,,,0.00,WeatherCatV1.12B45,2013-04-23 23:05:00,
2013-04-23 16:10:00,56.3,9.3,30.17,NNE,22,2.7,4.0,15,0.00,,,0.00,WeatherCatV1.12B45,2013-04-23 23:10:00,
2013-04-23 16:15:00,55.9,9.0,30.17,NNE,33,3.1,4.0,15,0.00,,,0.00,WeatherCatV1.12B45,2013-04-23 23:15:00,
2013-04-23 16:20:00,55.8,8.8,30.17,ENE,64,5.8,5.8,15,0.00,,,0.00,WeatherCatV1.12B45,2013-04-23 23:20:00,
2013-04-23 16:25:00,56.1,9.1,30.17,NNW,331,3.6,4.0,15,0.00,,,0.00,WeatherCatV1.12B45,2013-04-23 23:25:00,
2013-04-23 16:30:00,56.3,9.3,30.17,NNE,23,2.2,6.3,15,0.00,,,0.00,WeatherCatV1.12B45,2013-04-23 23:30:00,
2013-04-23 16:35:00,56.1,9.1,30.17,NE,34,4.9,5.4,15,0.00,,,0.00,WeatherCatV1.12B45,2013-04-23 23:35:00,
2013-04-23 16:40:00,55.8,8.8,30.17,NNW,330,2.7,2.7,15,0.00,,,0.00,WeatherCatV1.12B45,2013-04-23 23:40:00,
2013-04-23 16:45:00,55.2,8.4,30.17,North,357,2.2,2.7,15,0.00,,,0.00,WeatherCatV1.12B45,2013-04-23 23:45:00,
2013-04-23 16:50:00,55.4,8.5,30.17,West,271,0.0,3.1,15,0.00,,,0.00,WeatherCatV1.12B45,2013-04-23 23:50:00,
2013-04-23 16:55:00,55.6,8.7,30.17,NNW,337,3.6,3.6,15,0.00,,,0.00,WeatherCatV1.12B45,2013-04-23 23:55:00,
2013-04-23 17:00:00,55.4,8.5,30.17,NNE,29,4.0,4.9,15,0.00,,,0.00,WeatherCatV1.12B45,2013-04-24 00:00:00,
2013-04-23 17:05:00,55.0,8.3,30.17,ENE,71,0.0,4.0,15,0.00,,,0.00,WeatherCatV1.12B45,2013-04-24 00:05:00,
2013-04-23 17:10:00,54.3,7.7,30.17,West,261,0.0,0.0,15,0.00,,,0.00,WeatherCatV1.12B45,2013-04-24 00:10:00,
2013-04-23 17:15:00,53.8,7.2,30.17,NW,308,2.7,4.0,15,0.00,,,0.00,WeatherCatV1.12B45,2013-04-24 00:15:00,
2013-04-23 17:20:00,53.8,7.2,30.14,NW,324,3.1,3.1,15,0.00,,,0.00,WeatherCatV1.12B45,2013-04-24 00:20:00,
2013-04-23 17:25:00,54.0,7.4,30.14,SSW,193,0.0,0.0,15,0.00,,,0.00,WeatherCatV1.12B45,2013-04-24 00:25:00,
2013-04-23 17:30:00,54.5,7.8,30.14,SSE,152,0.0,3.6,15,0.00,,,0.00,WeatherCatV1.12B45,2013-04-24 00:30:00,
2013-04-23 17:35:00,54.5,7.8,30.14,SSE,153,0.0,0.0,15,0.00,,,0.00,WeatherCatV1.12B45,2013-04-24 00:35:00,
2013-04-23 17:40:00,54.7,8.0,30.14,NNE,14,0.0,0.0,15,0.00,,,0.00,WeatherCatV1.12B45,2013-04-24 00:40:00,
2013-04-23 17:45:00,54.5,7.8,30.14,NNW,339,0.0,0.0,15,0.00,,,0.00,WeatherCatV1.12B45,2013-04-24 00:45:00,
2013-04-23 17:50:00,54.1,7.5,30.14,WNW,301,0.0,0.0,15,0.00,,,0.00,WeatherCatV1.12B45,2013-04-24 00:50:00,
2013-04-23 17:55:00,53.6,7.1,30.14,NNW,328,4.0,4.0,15,0.00,,,0.00,WeatherCatV1.12B45,2013-04-24 00:55:00,
2013-04-23 18:00:00,53.1,8.1,30.14,West,281,2.7,2.7,16,0.00,,,0.00,WeatherCatV1.12B45,2013-04-24 01:00:00,
2013-04-23 18:05:00,52.7,7.8,30.14,NNE,31,0.0,0.0,16,0.00,,,0.00,WeatherCatV1.12B45,2013-04-24 01:05:00,
2013-04-23 18:10:00,52.5,7.6,30.14,NNE,29,0.0,0.0,16,0.00,,,0.00,WeatherCatV1.12B45,2013-04-24 01:10:00,
2013-04-23 18:15:00,52.3,7.5,30.14,NNE,29,0.0,0.0,16,0.00,,,0.00,WeatherCatV1.12B45,2013-04-24 01:15:00,
2013-04-23 18:20:00,52.2,7.4,30.17,NNE,29,0.0,0.0,16,0.00,,,0.00,WeatherCatV1.12B45,2013-04-24 01:20:00,
2013-04-23 18:25:00,52.0,9.8,30.17,NNE,29,0.0,0.0,18,0.00,,,0.00,WeatherCatV1.12B45,2013-04-24 01:25:00,
2013-04-23 18:30:00,51.8,13.1,30.17,NNE,29,0.0,0.0,21,0.00,,,0.00,WeatherCatV1.12B45,2013-04-24 01:30:00,
2013-04-23 18:35:00,51.6,13.0,30.17,NNE,29,0.0,0.0,21,0.00,,,0.00,WeatherCatV1.12B45,2013-04-24 01:35:00,
2013-04-23 18:40:00,51.8,13.1,30.17,NNE,29,0.0,0.0,21,0.00,,,0.00,WeatherCatV1.12B45,2013-04-24 01:40:00,
2013-04-23 18:45:00,52.2,13.4,30.17,NNE,29,0.0,0.0,21,0.00,,,0.00,WeatherCatV1.12B45,2013-04-24 01:45:00,
2013-04-23 18:50:00,52.2,15.5,30.17,NNE,29,0.0,0.0,23,0.00,,,0.00,WeatherCatV1.12B45,2013-04-24 01:50:00,
2013-04-23 18:55:00,52.0,15.4,30.17,NNE,29,0.0,0.0,23,0.00,,,0.00,WeatherCatV1.12B45,2013-04-24 01:55:00,
2013-04-23 19:00:00,51.8,13.1,30.17,NNE,29,0.0,0.0,21,0.00,,,0.00,WeatherCatV1.12B45,2013-04-24 02:00:00,
2013-04-23 19:05:00,51.4,12.8,30.17,NNE,29,0.0,0.0,21,0.00,,,0.00,WeatherCatV1.12B45,2013-04-24 02:05:00,
2013-04-23 19:10:00,50.7,15.3,30.17,NNE,29,0.0,0.0,24,0.00,,,0.00,WeatherCatV1.12B45,2013-04-24 02:10:00,
2013-04-23 19:16:00,50.2,14.8,30.17,NNE,29,0.0,0.0,24,0.00,,,0.00,WeatherCatV1.12B45,2013-04-24 02:16:00,
2013-04-23 19:21:00,49.6,14.3,30.17,NNE,29,0.0,0.0,24,0.00,,,0.00,WeatherCatV1.12B45,2013-04-24 02:21:00,
2013-04-23 19:26:00,48.9,15.6,30.17,SW,220,0.0,0.0,26,0.00,,,0.00,WeatherCatV1.12B45,2013-04-24 02:26:00,
2013-04-23 19:31:00,48.4,15.1,30.17,SW,232,2.7,3.1,26,0.00,,,0.00,WeatherCatV1.12B45,2013-04-24 02:31:00,
2013-04-23 19:36:00,48.0,15.7,30.17,SW,232,2.7,3.1,27,0.00,,,0.00,WeatherCatV1.12B45,2013-04-24 02:36:00,
2013-04-23 19:41:00,47.5,15.2,30.17,SW,224,2.7,3.6,27,0.00,,,0.00,WeatherCatV1.12B45,2013-04-24 02:41:00,
2013-04-23 19:46:00,47.3,15.0,30.17,SW,223,3.1,3.1,27,0.00,,,0.00,WeatherCatV1.12B45,2013-04-24 02:46:00,
2013-04-23 19:51:00,46.9,14.7,30.17,SW,226,2.7,3.6,27,0.00,,,0.00,WeatherCatV1.12B45,2013-04-24 02:51:00,
2013-04-23 19:56:00,46.4,14.3,30.17,SW,227,2.7,2.7,27,0.00,,,0.00,WeatherCatV1.12B45,2013-04-24 02:56:00,
2013-04-23 20:01:00,46.2,14.9,30.17,WSW,253,2.2,2.7,28,0.00,,,0.00,WeatherCatV1.12B45,2013-04-24 03:01:00,
2013-04-23 20:06:00,46.0,14.8,30.17,WSW,253,2.2,2.7,28,0.00,,,0.00,WeatherCatV1.12B45,2013-04-24 03:06:00,
2013-04-23 20:11:00,45.7,14.5,30.17,WSW,253,2.2,2.7,28,0.00,,,0.00,WeatherCatV1.12B45,2013-04-24 03:11:00,
2013-04-23 20:16:00,45.5,14.3,30.17,WSW,253,0.0,0.0,28,0.00,,,0.00,WeatherCatV1.12B45,2013-04-24 03:16:00,
2013-04-23 20:21:00,45.3,14.2,30.17,WSW,253,0.0,0.0,28,0.00,,,0.00,WeatherCatV1.12B45,2013-04-24 03:21:00,
2013-04-23 20:26:00,45.1,14.0,30.17,WSW,246,0.0,0.0,28,0.00,,,0.00,WeatherCatV1.12B45,2013-04-24 03:26:00,
2013-04-23 20:30:00,45.1,14.0,30.17,WSW,246,0.0,2.2,28,0.00,,,0.00,WeatherCatV1.12B45,2013-04-24 03:30:00,
2013-04-23 20:35:00,45.1,14.8,30.17,WSW,246,0.0,0.0,29,0.00,,,0.00,WeatherCatV1.12B45,2013-04-24 03:35:00,
2013-04-23 20:40:00,45.0,13.8,30.17,WSW,246,0.0,0.0,28,0.00,,,0.00,WeatherCatV1.12B45,2013-04-24 03:40:00,
2013-04-23 20:46:00,45.0,13.8,30.17,WSW,246,0.0,0.0,28,0.00,,,0.00,WeatherCatV1.12B45,2013-04-24 03:46:00,
2013-04-23 20:51:00,44.8,13.7,30.17,WSW,246,0.0,0.0,28,0.00,,,0.00,WeatherCatV1.12B45,2013-04-24 03:51:00,
2013-04-23 20:56:00,44.8,13.7,30.17,WSW,244,0.0,0.0,28,0.00,,,0.00,WeatherCatV1.12B45,2013-04-24 03:56:00,
2013-04-23 21:01:00,44.8,13.7,30.17,WSW,240,0.0,0.0,28,0.00,,,0.00,WeatherCatV1.12B45,2013-04-24 04:01:00,
2013-04-23 21:06:00,44.8,13.7,30.17,SW,225,0.0,0.0,28,0.00,,,0.00,WeatherCatV1.12B45,2013-04-24 04:06:00,
2013-04-23 21:11:00,44.8,13.7,30.17,SW,225,0.0,0.0,28,0.00,,,0.00,WeatherCatV1.12B45,2013-04-24 04:11:00,
2013-04-23 21:16:00,44.4,14.2,30.17,SW,225,0.0,0.0,29,0.00,,,0.00,WeatherCatV1.12B45,2013-04-24 04:16:00,
2013-04-23 21:21:00,43.7,13.6,30.17,SW,225,0.0,0.0,29,0.00,,,0.00,WeatherCatV1.12B45,2013-04-24 04:21:00,
2013-04-23 21:26:00,43.3,13.2,30.17,SW,225,0.0,0.0,29,0.00,,,0.00,WeatherCatV1.12B45,2013-04-24 04:26:00,
2013-04-23 21:31:00,42.8,13.5,30.17,SW,225,0.0,0.0,30,0.00,,,0.00,WeatherCatV1.12B45,2013-04-24 04:31:00,
2013-04-23 21:36:00,42.4,14.0,30.17,SW,225,0.0,0.0,31,0.00,,,0.00,WeatherCatV1.12B45,2013-04-24 04:36:00,
2013-04-23 21:41:00,42.3,13.8,30.17,SW,225,0.0,0.0,31,0.00,,,0.00,WeatherCatV1.12B45,2013-04-24 04:41:00,
2013-04-23 21:46:00,42.1,13.7,30.17,SW,225,0.0,0.0,31,0.00,,,0.00,WeatherCatV1.12B45,2013-04-24 04:46:00,
2013-04-23 21:51:00,42.1,13.7,30.17,SW,225,0.0,0.0,31,0.00,,,0.00,WeatherCatV1.12B45,2013-04-24 04:51:00,
2013-04-23 21:56:00,42.3,13.8,30.17,SW,225,0.0,0.0,31,0.00,,,0.00,WeatherCatV1.12B45,2013-04-24 04:56:00,
2013-04-23 22:01:00,42.4,14.0,30.17,SW,225,0.0,0.0,31,0.00,,,0.00,WeatherCatV1.12B45,2013-04-24 05:01:00,
2013-04-23 22:06:00,42.4,14.7,30.17,SW,225,0.0,0.0,32,0.00,,,0.00,WeatherCatV1.12B45,2013-04-24 05:06:00,
2013-04-23 22:11:00,42.1,14.4,30.17,SW,225,0.0,0.0,32,0.00,,,0.00,WeatherCatV1.12B45,2013-04-24 05:11:00,
2013-04-23 22:16:00,42.1,14.4,30.17,SW,225,0.0,0.0,32,0.00,,,0.00,WeatherCatV1.12B45,2013-04-24 05:16:00,
2013-04-23 22:21:00,41.7,14.1,30.17,SW,225,0.0,0.0,32,0.00,,,0.00,WeatherCatV1.12B45,2013-04-24 05:21:00,
2013-04-23 22:26:00,41.7,14.1,30.17,SW,225,0.0,0.0,32,0.00,,,0.00,WeatherCatV1.12B45,2013-04-24 05:26:00,
2013-04-23 22:31:00,41.5,14.6,30.17,SW,225,0.0,0.0,33,0.00,,,0.00,WeatherCatV1.12B45,2013-04-24 05:31:00,
2013-04-23 22:36:00,41.4,13.7,30.17,SW,225,0.0,0.0,32,0.00,,,0.00,WeatherCatV1.12B45,2013-04-24 05:36:00,
2013-04-23 22:41:00,41.0,14.8,30.17,SW,225,0.0,0.0,34,0.00,,,0.00,WeatherCatV1.12B45,2013-04-24 05:41:00,
2013-04-23 22:46:00,41.0,14.1,30.17,SW,225,0.0,0.0,33,0.00,,,0.00,WeatherCatV1.12B45,2013-04-24 05:46:00,
2013-04-23 22:51:00,40.6,14.5,30.17,SW,225,0.0,0.0,34,0.00,,,0.00,WeatherCatV1.12B45,2013-04-24 05:51:00,
2013-04-23 22:56:00,40.5,14.3,30.17,SW,225,0.0,0.0,34,0.00,,,0.00,WeatherCatV1.12B45,2013-04-24 05:56:00,
2013-04-23 23:01:00,40.5,14.3,30.17,SW,225,0.0,0.0,34,0.00,,,0.00,WeatherCatV1.12B45,2013-04-24 06:01:00,
2013-04-23 23:06:00,40.5,15.0,30.17,SW,225,0.0,0.0,35,0.00,,,0.00,WeatherCatV1.12B45,2013-04-24 06:06:00,
2013-04-23 23:11:00,40.3,14.8,30.17,SW,225,0.0,0.0,35,0.00,,,0.00,WeatherCatV1.12B45,2013-04-24 06:11:00,
2013-04-23 23:16:00,40.5,15.0,30.17,SW,225,0.0,0.0,35,0.00,,,0.00,WeatherCatV1.12B45,2013-04-24 06:16:00,
2013-04-23 23:21:00,40.3,14.8,30.17,SW,225,0.0,0.0,35,0.00,,,0.00,WeatherCatV1.12B45,2013-04-24 06:21:00,
2013-04-23 23:26:00,39.7,15.6,30.17,SW,225,0.0,0.0,37,0.00,,,0.00,WeatherCatV1.12B45,2013-04-24 06:26:00,
2013-04-23 23:31:00,39.6,15.5,30.17,SW,225,0.0,0.0,37,0.00,,,0.00,WeatherCatV1.12B45,2013-04-24 06:31:00,
2013-04-23 23:36:00,39.4,15.9,30.17,SW,225,0.0,0.0,38,0.00,,,0.00,WeatherCatV1.12B45,2013-04-24 06:36:00,
2013-04-23 23:41:00,39.2,15.8,30.17,SW,225,0.0,0.0,38,0.00,,,0.00,WeatherCatV1.12B45,2013-04-24 06:41:00,
2013-04-23 23:46:00,38.8,16.0,30.20,SW,225,0.0,0.0,39,0.00,,,0.00,WeatherCatV1.12B45,2013-04-24 06:46:00,
2013-04-23 23:51:00,38.5,15.7,30.20,SW,225,0.0,0.0,39,0.00,,,0.00,WeatherCatV1.12B45,2013-04-24 06:51:00,
2013-04-23 23:56:00,38.5,15.7,30.20,SW,225,0.0,0.0,39,0.00,,,0.00,WeatherCatV1.12B45,2013-04-24 06:56:00,